ADDS METAR Data INFO
IDs: Format: Raw Decoded Include TAF

Data at: 2354 UTC 23 Feb 2018

KEDJ 232335Z AUTO 29005KT 10SM BKN020 11/11 A3021 RMK AO1
KEDJ 232315Z AUTO 28007KT 10SM OVC020 12/12 A3019 RMK AO1
KEDJ 232255Z AUTO 28007G14KT 10SM OVC020 12/12 A3019 RMK AO1
KEDJ 232235Z AUTO 27009KT 10SM BKN017 OVC023 13/12 A3019 RMK AO1
KEDJ 232215Z AUTO 27012G15KT 10SM OVC017 13/13 A3018 RMK AO1
KEDJ 232155Z AUTO 26012KT 10SM OVC017 13/12 A3018 RMK AO1
KEDJ 232135Z AUTO 27010KT 10SM BKN017 OVC021 13/13 A3018 RMK AO1
KEDJ 232115Z AUTO 25013G20KT 10SM BKN021 14/12 A3017 RMK AO1
KEDJ 232055Z AUTO 25015G19KT 10SM OVC023 14/13 A3017 RMK AO1
KEDJ 232035Z AUTO 24012G20KT 10SM SCT019 OVC026 14/13 A3018 RMK AO1
KEDJ 232015Z AUTO 24015G21KT 10SM BKN019 OVC026 14/13 A3018 RMK AO1
KEDJ 231955Z AUTO 25013KT 10SM BKN018 BKN028 OVC034 14/14 A3018 RMK AO1
KEDJ 231935Z AUTO 25014G24KT 10SM FEW018 SCT023 BKN028 14/14 A3017 RMK AO1
KEDJ 231915Z AUTO 24015G18KT 10SM FEW009 SCT013 BKN023 14/14 A3016 RMK AO1
KEDJ 231855Z AUTO 26013KT 10SM BKN008 BKN013 13/ A3018 RMK AO1
KEDJ 231835Z AUTO 26011KT 2SM OVC008 14/ A3018 RMK AO1
KEDJ 231815Z AUTO 24014G20KT 10SM BKN008 BKN013 14/ A3018 RMK AO1
KEDJ 231755Z AUTO 24012G17KT 10SM BKN006 OVC013 14/ A3018 RMK AO1
KEDJ 231735Z AUTO 23014G18KT 2 1/2SM OVC006 14/ A3018 RMK AO1 VSBY 2V3
KEDJ 231715Z AUTO 23016G20KT 3SM OVC006 14/ A3018 RMK AO1
KEDJ 231655Z AUTO 23019G23KT 6SM OVC006 14/ A3018 RMK AO1
KEDJ 231635Z AUTO 23016G26KT 1 3/4SM OVC006 14/ A3017 RMK AO1
KEDJ 231615Z AUTO 23021G24KT 10SM OVC006 13/ A3016 RMK AO1
KEDJ 231555Z AUTO 22020G27KT 10SM OVC006 13/ A3016 RMK AO1
KEDJ 231535Z AUTO 21017G23KT 10SM OVC005 13/ A3014 RMK AO1
KEDJ 231515Z AUTO 21017G24KT 10SM OVC002 13/ A3015 RMK AO1
KEDJ 231455Z AUTO 19012KT 9SM OVC002 12/ A3015 RMK AO1
KEDJ 231435Z AUTO 19014G19KT 10SM OVC002 11/ A3016 RMK AO1
KEDJ 231415Z AUTO 19013G17KT 3SM OVC001 11/ A3015 RMK AO1
KEDJ 231355Z AUTO 18010KT 7SM OVC001 10/ A3015 RMK AO1
KEDJ 231335Z AUTO 18014G19KT 10SM OVC002 10/ A3015 RMK AO1
KEDJ 231315Z AUTO 17011G17KT 10SM OVC002 10/ A3016 RMK AO1
KEDJ 231255Z AUTO 17012G16KT 9SM OVC001 10/ A3015 RMK AO1
KEDJ 231235Z AUTO 17012KT 10SM OVC002 09/ A3017 RMK AO1
KEDJ 231215Z AUTO 17012KT 10SM OVC002 09/ A3018 RMK AO1
KEDJ 231155Z AUTO 18011KT 8SM OVC002 08/ A3019 RMK AO1
KEDJ 231135Z AUTO 15010KT 10SM BKN003 08/ A3019 RMK AO1
KEDJ 231115Z AUTO 16011KT 9SM BKN003 08/ A3021 RMK AO1
KEDJ 231055Z AUTO 17010KT 8SM BKN002 08/ A3021 RMK AO1
KEDJ 231035Z AUTO 16014KT 6SM OVC002 07/ A3022 RMK AO1
KEDJ 231015Z AUTO 17013KT 8SM OVC002 07/ A3024 RMK AO1
KEDJ 230955Z AUTO 16011KT 5SM OVC002 06/ A3024 RMK AO1
KEDJ 230935Z AUTO 16012KT 3SM OVC001 05/ A3025 RMK AO1
KEDJ 230915Z AUTO 16011KT 2 1/2SM OVC001 05/ A3026 RMK AO1
KEDJ 230855Z AUTO 17014KT 3SM OVC002 05/ A3027 RMK AO1
KEDJ 230835Z AUTO 17010KT 3SM OVC002 05/ A3028 RMK AO1
KEDJ 230815Z AUTO 16010KT 2 1/2SM OVC002 05/ A3028 RMK AO1
KEDJ 230755Z AUTO 16012KT 2 1/2SM OVC002 05/ A3029 RMK AO1
KEDJ 230735Z AUTO 16011KT 2 1/2SM OVC002 05/ A3030 RMK AO1
KEDJ 230715Z AUTO 16011KT 2 1/2SM OVC002 04/ A3031 RMK AO1
KEDJ 230655Z AUTO 16008KT 2SM OVC001 04/ A3033 RMK AO1
KEDJ 230635Z AUTO 15006KT 1 1/4SM OVC001 04/ A3034 RMK AO1
KEDJ 230615Z AUTO 14003KT 1 1/2SM OVC002 04/ A3035 RMK AO1
KEDJ 230555Z AUTO 14004KT 2SM BKN002 03/ A3035 RMK AO1
KEDJ 230535Z AUTO 15003KT 1 1/2SM OVC002 03/ A3035 RMK AO1
KEDJ 230515Z AUTO 10004KT 1 1/4SM BKN001 03/ A3035 RMK AO1
KEDJ 230455Z AUTO 09006KT 1 1/4SM OVC001 03/03 A3037 RMK AO1
KEDJ 230435Z AUTO 07005KT 1 1/4SM OVC001 02/02 A3039 RMK AO1
KEDJ 230415Z AUTO 05005KT 1 1/4SM OVC001 03/03 A3041 RMK AO1
KEDJ 230355Z AUTO 04005KT 1 3/4SM BKN003 03/03 A3041 RMK AO1
KEDJ 230335Z AUTO 06003KT 2SM BKN006 03/03 A3040 RMK AO1
KEDJ 230315Z AUTO 07004KT 4SM OVC006 03/03 A3041 RMK AO1
KEDJ 230255Z AUTO 05004KT 6SM BKN005 03/03 A3040 RMK AO1
KEDJ 230235Z AUTO 08005KT 6SM BKN006 03/03 A3039 RMK AO1
KEDJ 230215Z AUTO 07004KT 6SM BKN004 02/02 A3040 RMK AO1
KEDJ 230155Z AUTO 08007KT 5SM OVC003 02/02 A3039 RMK AO1
KEDJ 230135Z AUTO 07008KT 5SM OVC003 02/02 A3041 RMK AO1
KEDJ 230115Z AUTO 07010KT 5SM OVC003 02/02 A3042 RMK AO1
KEDJ 230055Z AUTO 05008KT 5SM BKN004 OVC014 03/03 A3043 RMK AO1
KEDJ 230035Z AUTO 07007KT 7SM BKN005 OVC016 03/03 A3042 RMK AO1
KEDJ 230015Z AUTO 05006KT 9SM BKN005 OVC016 04/04 A3042 RMK AO1
KEDJ 222355Z AUTO 04008KT 10SM OVC018 04/04 A3042 RMK AO1
KEDJ 222335Z AUTO 04006KT 10SM OVC018 06/04 A3040 RMK AO1
KEDJ 222315Z AUTO 11005KT 10SM OVC018 07/04 A3039 RMK AO1
KEDJ 222255Z AUTO 12008KT 10SM OVC020 07/04 A3039 RMK AO1
KEDJ 222235Z AUTO 12009KT 10SM OVC020 07/04 A3040 RMK AO1
KEDJ 222215Z AUTO 09010KT 10SM OVC020 07/05 A3041 RMK AO1
KEDJ 222155Z AUTO 06005KT 10SM OVC020 07/07 A3041 RMK AO1
KEDJ 222135Z AUTO 06006KT 10SM OVC020 07/06 A3042 RMK AO1
KEDJ 222115Z AUTO 07007KT 10SM OVC020 07/05 A3042 RMK AO1
KEDJ 222055Z AUTO 08009KT 10SM OVC018 07/05 A3042 RMK AO1
KEDJ 222035Z AUTO 06009KT 10SM OVC018 07/05 A3042 RMK AO1
KEDJ 222015Z AUTO 07008KT 10SM OVC016 07/05 A3043 RMK AO1
KEDJ 221955Z AUTO 07014G17KT 10SM BKN018 OVC048 07/05 A3043 RMK AO1
KEDJ 221935Z AUTO 09014G21KT 10SM BKN016 BKN048 07/05 A3043 RMK AO1
KEDJ 221915Z AUTO 07013KT 10SM BKN014 OVC048 07/05 A3043 RMK AO1
KEDJ 221855Z AUTO 08016G22KT 10SM SCT014 BKN046 06/05 A3043 RMK AO1
KEDJ 221835Z AUTO 09018G23KT 10SM SCT012 OVC046 05/05 A3043 RMK AO1
KEDJ 221815Z AUTO 09015G19KT 10SM SCT010 BKN044 04/04 A3044 RMK AO1
KEDJ 221755Z AUTO 07012KT 10SM BKN010 BKN015 BKN042 04/04 A3046 RMK AO1
KEDJ 221735Z AUTO 07011KT 10SM BKN006 BKN012 OVC042 03/03 A3048 RMK AO1
KEDJ 221715Z AUTO 07012KT 10SM OVC006 02/02 A3050 RMK AO1
KEDJ 221655Z AUTO 05011KT 9SM OVC006 02/02 A3052 RMK AO1
KEDJ 221635Z AUTO 05008KT 8SM OVC006 01/01 A3053 RMK AO1
KEDJ 221615Z AUTO 04013KT 5SM BKN005 OVC030 01/01 A3053 RMK AO1
KEDJ 221555Z AUTO 04011KT 6SM BKN005 OVC027 00/00 A3052 RMK AO1
KEDJ 221535Z AUTO 03010KT 3SM BKN005 00/00 A3052 RMK AO1
KEDJ 221515Z AUTO 03010KT 2SM OVC006 01/01 A3052 RMK AO1
KEDJ 221455Z AUTO 02011KT 10SM OVC010 00/00 A3051 RMK AO1
KEDJ 221435Z AUTO 35013G16KT 10SM BKN010 01/01 A3050 RMK AO1
KEDJ 221415Z AUTO 35011G16KT 340V040 10SM SCT010 01/01 A3046 RMK AO1
KEDJ 221355Z AUTO 09022G32KT 10SM FEW009 00/00 A3027 RMK AO1
KEDJ 221335Z AUTO 08015G19KT 6SM SCT009 BKN023 00/00 A3039 RMK AO1
KEDJ 221315Z AUTO 09016G22KT 6SM SCT009 BKN022 BKN043 00/00 A3040 RMK AO1
KEDJ 221255Z AUTO 07011G16KT 5SM OVC009 00/00 A3044 RMK AO1
KEDJ 221235Z AUTO 05010G15KT 6SM OVC009 00/00 A3046 RMK AO1
KEDJ 221215Z AUTO 06011KT 6SM BKN009 00/00 A3045 RMK AO1
KEDJ 221155Z AUTO 06012KT 5SM BKN009 OVC041 00/00 A3045 RMK AO1